Solana Beach, California
Current Conditions -  °F | °C
As of 7:55 PM on Tuesday 21 Oct 2014 (Local Time) from KNKX Reporting Station
Broken Clouds Broken Clouds  
Wind Chill: 66°   Ceiling: 15000
Heat Index: 66°   Visibility: 10mi
Dew Point: 60°   Wind: 6mph
Humidity: 81%   Direction: 330°NNW
Pressure: 29.87"   Gusts: NA
Location:  32.98°N, 117.27°W
Report Text: KNKX 220255Z 33005KT 10SM SCT015 BKN150 19/16 A2987 RMK AO2 SLP110 T01890156 51010
Loading
Personal Weather Stations






























Interactive Weather Map
Tropical Storm Tracking
New forecast layout! Learn more

10-Day Weather Forecast

Advertisements
Track Severe Weather on mobile